Time,TemperatureF,DewpointF,PressureIn,WindDirection,WindDirectionDegrees,WindSpeedMPH,WindSpeedGustMPH,Humidity,HourlyPrecipIn,Conditions,Clouds,dailyrainin,SolarRadiationWatts/m^2,SoftwareType,DateUTC
2013-02-05 00:00:00,30.9,24.5,29.87,SSW,198,7.0,8.0,77,0.00,,---,0.00,0.00,VWS V14.01,2013-02-05 06:00:00,
2013-02-05 00:05:00,31.0,24.6,29.87,SSW,199,4.0,8.0,77,0.00,,---,0.00,0.00,VWS V14.01,2013-02-05 06:05:00,
2013-02-05 00:10:00,31.0,24.3,29.86,SSW,198,4.0,8.0,76,0.00,,---,0.00,0.00,VWS V14.01,2013-02-05 06:10:00,
2013-02-05 00:15:00,31.0,24.6,29.87,SSW,198,4.0,8.0,77,0.00,,---,0.00,0.00,VWS V14.01,2013-02-05 06:15:00,
2013-02-05 00:20:00,31.0,24.6,29.87,SSW,198,3.0,8.0,77,0.00,,---,0.00,0.00,VWS V14.01,2013-02-05 06:20:00,
2013-02-05 00:25:00,31.2,24.5,29.87,SSW,198,2.0,8.0,76,0.00,,---,0.00,0.00,VWS V14.01,2013-02-05 06:25:00,
2013-02-05 00:30:00,31.0,24.3,29.87,SSW,198,4.0,7.0,76,0.00,,---,0.00,0.00,VWS V14.01,2013-02-05 06:30:00,
2013-02-05 00:35:00,31.0,24.3,29.88,SSW,198,6.0,7.0,76,0.00,,---,0.00,0.00,VWS V14.01,2013-02-05 06:35:00,
2013-02-05 00:40:00,30.9,24.2,29.87,SSW,198,4.0,7.0,76,0.00,,---,0.00,0.00,VWS V14.01,2013-02-05 06:40:00,
2013-02-05 00:45:00,30.7,24.4,29.87,SSW,198,5.0,7.0,77,0.00,,---,0.00,0.00,VWS V14.01,2013-02-05 06:45:00,
2013-02-05 00:50:00,30.7,24.4,29.87,SSW,198,6.0,7.0,77,0.00,,---,0.00,0.00,VWS V14.01,2013-02-05 06:50:00,
2013-02-05 00:55:00,30.6,24.3,29.87,South,190,6.0,10.0,77,0.00,,---,0.00,0.00,VWS V14.01,2013-02-05 06:55:00,
2013-02-05 01:00:00,30.6,24.3,29.86,SSW,200,4.0,6.0,77,0.00,,---,0.00,0.00,VWS V14.01,2013-02-05 07:00:00,
2013-02-05 01:05:00,30.4,24.4,29.86,SW,224,3.0,7.0,78,0.00,,---,0.00,0.00,VWS V14.01,2013-02-05 07:05:00,
2013-02-05 01:10:00,30.6,24.6,29.86,SSW,211,4.0,7.0,78,0.00,,---,0.00,0.00,VWS V14.01,2013-02-05 07:10:00,
2013-02-05 01:15:00,30.6,24.6,29.87,SSW,211,6.0,7.0,78,0.00,,---,0.00,0.00,VWS V14.01,2013-02-05 07:15:00,
2013-02-05 01:20:00,30.4,24.4,29.87,SSW,213,3.0,7.0,78,0.00,,---,0.00,0.00,VWS V14.01,2013-02-05 07:20:00,
2013-02-05 01:25:00,30.1,24.1,29.86,SSW,205,5.0,7.0,78,0.00,,---,0.00,0.00,VWS V14.01,2013-02-05 07:25:00,
2013-02-05 01:30:00,30.1,24.1,29.86,SSW,199,5.0,7.0,78,0.00,,---,0.00,0.00,VWS V14.01,2013-02-05 07:30:00,
2013-02-05 01:31:00,30.1,24.1,29.86,SSW,198,7.0,8.0,78,0.00,,---,0.00,0.00,VWS V14.01,2013-02-05 07:31:00,
2013-02-05 01:36:00,30.1,24.1,29.86,South,190,6.0,9.0,78,0.00,,---,0.00,0.00,VWS V14.01,2013-02-05 07:36:00,
2013-02-05 01:41:00,30.1,24.4,29.87,SSW,195,5.0,9.0,79,0.00,,---,0.00,0.00,VWS V14.01,2013-02-05 07:41:00,
2013-02-05 01:46:00,30.1,24.4,29.87,South,190,3.0,10.0,79,0.00,,---,0.00,0.00,VWS V14.01,2013-02-05 07:46:00,
2013-02-05 01:51:00,30.3,24.3,29.86,SW,215,6.0,10.0,78,0.00,,---,0.00,0.00,VWS V14.01,2013-02-05 07:51:00,
2013-02-05 01:56:00,30.3,24.3,29.86,SSW,199,4.0,10.0,78,0.00,,---,0.00,0.00,VWS V14.01,2013-02-05 07:56:00,
2013-02-05 02:00:00,30.4,24.4,29.86,SSW,213,6.0,10.0,78,0.00,,---,0.00,0.00,VWS V14.01,2013-02-05 08:00:00,
2013-02-05 02:01:00,30.4,24.4,29.86,SSW,192,2.0,6.0,78,0.00,,---,0.00,0.00,VWS V14.01,2013-02-05 08:01:00,
2013-02-05 02:06:00,30.4,24.1,29.86,SW,215,5.0,8.0,77,0.00,,---,0.00,0.00,VWS V14.01,2013-02-05 08:06:00,
2013-02-05 02:11:00,30.6,24.3,29.86,SW,218,8.0,8.0,77,0.00,,---,0.00,0.00,VWS V14.01,2013-02-05 08:11:00,
2013-02-05 02:16:00,30.7,24.4,29.87,SSW,209,9.0,11.0,77,0.00,,---,0.00,0.00,VWS V14.01,2013-02-05 08:16:00,
2013-02-05 02:21:00,30.7,24.4,29.87,SSW,204,5.0,11.0,77,0.00,,---,0.00,0.00,VWS V14.01,2013-02-05 08:21:00,
2013-02-05 02:26:00,30.6,24.3,29.87,SSW,205,8.0,11.0,77,0.00,,---,0.00,0.00,VWS V14.01,2013-02-05 08:26:00,
2013-02-05 02:30:00,30.6,24.0,29.87,SSW,198,6.0,11.0,76,0.00,,---,0.00,0.00,VWS V14.01,2013-02-05 08:30:00,
2013-02-05 02:31:00,30.7,24.4,29.87,South,183,4.0,10.0,77,0.00,,---,0.00,0.00,VWS V14.01,2013-02-05 08:31:00,
2013-02-05 02:36:00,30.7,24.0,29.87,SSW,196,5.0,11.0,76,0.00,,---,0.00,0.00,VWS V14.01,2013-02-05 08:36:00,
2013-02-05 02:41:00,30.7,24.0,29.87,SW,214,4.0,11.0,76,0.00,,---,0.00,0.00,VWS V14.01,2013-02-05 08:41:00,
2013-02-05 02:46:00,30.9,24.2,29.87,SSW,208,4.0,12.0,76,0.00,,---,0.00,0.00,VWS V14.01,2013-02-05 08:46:00,
2013-02-05 02:51:00,30.9,24.2,29.87,South,191,7.0,12.0,76,0.00,,---,0.00,0.00,VWS V14.01,2013-02-05 08:51:00,
2013-02-05 02:56:00,30.9,24.2,29.87,SW,222,6.0,12.0,76,0.00,,---,0.00,0.00,VWS V14.01,2013-02-05 08:56:00,
2013-02-05 03:00:00,30.9,24.2,29.87,SW,225,6.0,12.0,76,0.00,,---,0.00,0.00,VWS V14.01,2013-02-05 09:00:00,
2013-02-05 03:01:00,30.9,24.2,29.87,SSW,213,5.0,8.0,76,0.00,,---,0.00,0.00,VWS V14.01,2013-02-05 09:01:00,
2013-02-05 03:06:00,30.9,24.5,29.87,SSW,202,6.0,9.0,77,0.00,,---,0.00,0.00,VWS V14.01,2013-02-05 09:06:00,
2013-02-05 03:11:00,30.7,24.4,29.87,SSW,209,4.0,9.0,77,0.00,,---,0.00,0.00,VWS V14.01,2013-02-05 09:11:00,
2013-02-05 03:16:00,30.7,24.4,29.87,SSW,209,4.0,9.0,77,0.00,,---,0.00,0.00,VWS V14.01,2013-02-05 09:16:00,
2013-02-05 03:21:00,30.6,24.6,29.87,SW,231,5.0,9.0,78,0.00,,---,0.00,0.00,VWS V14.01,2013-02-05 09:21:00,
2013-02-05 03:26:00,30.6,24.9,29.87,SW,231,3.0,9.0,79,0.00,,---,0.00,0.00,VWS V14.01,2013-02-05 09:26:00,
2013-02-05 03:30:00,30.6,24.6,29.88,WSW,239,2.0,9.0,78,0.00,,---,0.00,0.00,VWS V14.01,2013-02-05 09:30:00,
2013-02-05 03:31:00,30.6,24.6,29.88,West,276,4.0,5.0,78,0.00,,---,0.00,0.00,VWS V14.01,2013-02-05 09:31:00,
2013-02-05 03:36:00,31.0,25.0,29.88,WNW,289,2.0,5.0,78,0.00,,---,0.00,0.00,VWS V14.01,2013-02-05 09:36:00,
2013-02-05 03:41:00,31.3,24.9,29.89,WNW,284,5.0,6.0,77,0.00,,---,0.00,0.00,VWS V14.01,2013-02-05 09:41:00,
2013-02-05 03:46:00,31.0,24.6,29.89,NW,308,7.0,7.0,77,0.00,,---,0.00,0.00,VWS V14.01,2013-02-05 09:46:00,
2013-02-05 03:51:00,30.6,24.3,29.89,NW,325,5.0,8.0,77,0.00,,---,0.00,0.00,VWS V14.01,2013-02-05 09:51:00,
2013-02-05 03:56:00,30.3,24.6,29.89,NW,323,5.0,8.0,79,0.00,,---,0.00,0.00,VWS V14.01,2013-02-05 09:56:00,
2013-02-05 04:00:00,30.4,24.7,29.89,WNW,301,3.0,8.0,79,0.00,,---,0.00,0.00,VWS V14.01,2013-02-05 10:00:00,
2013-02-05 04:01:00,30.4,24.7,29.89,WNW,301,3.0,6.0,79,0.00,,---,0.00,0.00,VWS V14.01,2013-02-05 10:01:00,
2013-02-05 04:06:00,30.6,24.9,29.90,NNW,329,4.0,6.0,79,0.00,,---,0.00,0.00,VWS V14.01,2013-02-05 10:06:00,
2013-02-05 04:11:00,30.4,24.7,29.90,NNW,329,3.0,6.0,79,0.00,,---,0.00,0.00,VWS V14.01,2013-02-05 10:11:00,
2013-02-05 04:16:00,30.6,24.9,29.89,WNW,294,3.0,6.0,79,0.00,,---,0.00,0.00,VWS V14.01,2013-02-05 10:16:00,
2013-02-05 04:21:00,30.7,25.0,29.89,WSW,256,5.0,6.0,79,0.00,,---,0.00,0.00,VWS V14.01,2013-02-05 10:21:00,
2013-02-05 04:26:00,30.9,25.2,29.89,SW,234,4.0,6.0,79,0.00,,---,0.00,0.00,VWS V14.01,2013-02-05 10:26:00,
2013-02-05 04:30:00,30.7,25.0,29.89,SW,234,5.0,6.0,79,0.00,,---,0.00,0.00,VWS V14.01,2013-02-05 10:30:00,
2013-02-05 04:31:00,30.7,25.0,29.89,SW,234,5.0,5.0,79,0.00,,---,0.00,0.00,VWS V14.01,2013-02-05 10:31:00,
2013-02-05 04:36:00,30.4,24.7,29.89,SW,234,2.0,5.0,79,0.00,,---,0.00,0.00,VWS V14.01,2013-02-05 10:36:00,
2013-02-05 04:41:00,30.6,24.9,29.89,SW,234,4.0,5.0,79,0.00,,---,0.00,0.00,VWS V14.01,2013-02-05 10:41:00,
2013-02-05 04:46:00,30.3,24.6,29.89,SW,234,3.0,5.0,79,0.00,,---,0.00,0.00,VWS V14.01,2013-02-05 10:46:00,
2013-02-05 04:51:00,30.3,24.6,29.89,SW,234,3.0,5.0,79,0.00,,---,0.00,0.00,VWS V14.01,2013-02-05 10:51:00,
2013-02-05 04:56:00,30.1,24.4,29.89,SW,234,4.0,5.0,79,0.00,,---,0.00,0.00,VWS V14.01,2013-02-05 10:56:00,
2013-02-05 05:00:00,30.1,24.4,29.89,SW,234,4.0,5.0,79,0.00,,---,0.00,0.00,VWS V14.01,2013-02-05 11:00:00,
2013-02-05 05:01:00,30.0,24.3,29.89,SW,234,3.0,5.0,79,0.00,,---,0.00,0.00,VWS V14.01,2013-02-05 11:01:00,
2013-02-05 05:06:00,29.8,24.4,29.89,South,182,4.0,5.0,80,0.00,,---,0.00,0.00,VWS V14.01,2013-02-05 11:06:00,
2013-02-05 05:11:00,29.7,24.3,29.88,South,179,7.0,9.0,80,0.00,,---,0.00,0.00,VWS V14.01,2013-02-05 11:11:00,
2013-02-05 05:16:00,29.8,24.7,29.88,South,175,8.0,12.0,81,0.00,,---,0.00,0.00,VWS V14.01,2013-02-05 11:16:00,
2013-02-05 05:21:00,30.1,25.0,29.88,South,180,7.0,14.0,81,0.00,,---,0.00,0.00,VWS V14.01,2013-02-05 11:21:00,
2013-02-05 05:26:00,30.4,25.0,29.87,South,177,8.0,14.0,80,0.00,,---,0.00,0.00,VWS V14.01,2013-02-05 11:26:00,
2013-02-05 05:30:00,30.4,25.0,29.87,South,173,10.0,14.0,80,0.00,,---,0.00,0.00,VWS V14.01,2013-02-05 11:30:00,
2013-02-05 05:31:00,30.4,25.0,29.87,South,179,7.0,10.0,80,0.00,,---,0.00,0.00,VWS V14.01,2013-02-05 11:31:00,
2013-02-05 05:36:00,30.4,25.0,29.88,SSW,194,3.0,10.0,80,0.00,,---,0.00,0.00,VWS V14.01,2013-02-05 11:36:00,
2013-02-05 05:41:00,30.6,25.2,29.89,SSW,194,2.0,10.0,80,0.00,,---,0.00,0.00,VWS V14.01,2013-02-05 11:41:00,
2013-02-05 05:46:00,31.2,25.8,29.89,SSW,194,4.0,10.0,80,0.00,,---,0.00,0.00,VWS V14.01,2013-02-05 11:46:00,
2013-02-05 05:51:00,31.8,25.7,29.89,SSW,211,4.0,10.0,78,0.00,,---,0.00,0.00,VWS V14.01,2013-02-05 11:51:00,
2013-02-05 05:56:00,32.2,25.8,29.89,SSW,213,6.0,10.0,77,0.00,,---,0.00,0.00,VWS V14.01,2013-02-05 11:56:00,
2013-02-05 06:00:00,32.2,25.8,29.89,SSW,211,3.0,10.0,77,0.00,,---,0.00,0.00,VWS V14.01,2013-02-05 12:00:00,
2013-02-05 06:01:00,32.2,25.8,29.89,SW,223,5.0,6.0,77,0.00,,---,0.00,0.00,VWS V14.01,2013-02-05 12:01:00,
2013-02-05 06:06:00,32.5,25.8,29.89,SW,223,4.0,6.0,76,0.00,,---,0.00,0.00,VWS V14.01,2013-02-05 12:06:00,
2013-02-05 06:11:00,32.5,25.8,29.90,SW,223,3.0,6.0,76,0.00,,---,0.00,0.00,VWS V14.01,2013-02-05 12:11:00,
2013-02-05 06:16:00,32.7,25.7,29.90,SW,222,4.0,6.0,75,0.00,,---,0.00,0.00,VWS V14.01,2013-02-05 12:16:00,
2013-02-05 06:21:00,32.7,25.7,29.90,SW,222,4.0,6.0,75,0.00,,---,0.00,0.00,VWS V14.01,2013-02-05 12:21:00,
2013-02-05 06:26:00,32.7,25.7,29.90,SW,222,2.0,6.0,75,0.00,,---,0.00,0.00,VWS V14.01,2013-02-05 12:26:00,
2013-02-05 06:30:00,32.7,25.7,29.90,SW,222,4.0,6.0,75,0.00,,---,0.00,0.00,VWS V14.01,2013-02-05 12:30:00,
2013-02-05 06:31:00,32.7,25.7,29.90,SW,222,3.0,5.0,75,0.00,,---,0.00,0.00,VWS V14.01,2013-02-05 12:31:00,
2013-02-05 06:36:00,32.7,25.7,29.90,SW,222,5.0,6.0,75,0.00,,---,0.00,0.00,VWS V14.01,2013-02-05 12:36:00,
2013-02-05 06:41:00,32.8,25.8,29.90,SW,222,4.0,6.0,75,0.00,,---,0.00,0.00,VWS V14.01,2013-02-05 12:41:00,
2013-02-05 06:46:00,32.9,25.5,29.91,SW,234,3.0,6.0,74,0.00,,---,0.00,0.00,VWS V14.01,2013-02-05 12:46:00,
2013-02-05 06:51:00,32.9,25.5,29.91,SW,234,3.0,6.0,74,0.00,,---,0.00,0.00,VWS V14.01,2013-02-05 12:51:00,
2013-02-05 06:56:00,32.9,25.5,29.91,SW,234,5.0,6.0,74,0.00,,---,0.00,0.00,VWS V14.01,2013-02-05 12:56:00,
2013-02-05 07:00:00,33.1,25.7,29.91,WSW,250,4.0,6.0,74,0.00,,---,0.00,0.00,VWS V14.01,2013-02-05 13:00:00,
2013-02-05 07:01:00,33.2,25.5,29.91,WSW,254,6.0,6.0,73,0.00,,---,0.00,0.00,VWS V14.01,2013-02-05 13:01:00,
2013-02-05 07:06:00,33.5,25.5,29.90,WSW,247,4.0,8.0,72,0.00,,---,0.00,0.00,VWS V14.01,2013-02-05 13:06:00,
2013-02-05 07:12:00,33.8,25.4,29.91,WSW,247,5.0,8.0,71,0.00,,---,0.00,0.00,VWS V14.01,2013-02-05 13:12:00,
2013-02-05 07:17:00,34.0,25.6,29.91,WSW,247,4.0,8.0,71,0.00,,---,0.00,0.00,VWS V14.01,2013-02-05 13:17:00,
2013-02-05 07:22:00,33.7,25.3,29.91,SW,219,5.0,8.0,71,0.00,,---,0.00,0.00,VWS V14.01,2013-02-05 13:22:00,
2013-02-05 07:27:00,33.5,25.1,29.91,SW,219,3.0,8.0,71,0.00,,---,0.00,0.00,VWS V14.01,2013-02-05 13:27:00,
2013-02-05 07:30:00,33.7,24.3,29.91,WSW,242,3.0,8.0,68,0.00,,---,0.00,0.00,VWS V14.01,2013-02-05 13:30:00,
2013-02-05 07:32:00,33.7,25.3,29.92,WSW,242,2.0,4.0,71,0.00,,---,0.00,0.00,VWS V14.01,2013-02-05 13:32:00,
2013-02-05 07:37:00,33.8,25.4,29.92,WSW,242,2.0,4.0,71,0.00,,---,0.00,7.00,VWS V14.01,2013-02-05 13:37:00,
2013-02-05 07:42:00,33.8,25.4,29.92,WSW,242,3.0,4.0,71,0.00,,---,0.00,14.00,VWS V14.01,2013-02-05 13:42:00,
2013-02-05 07:47:00,33.8,25.4,29.92,WSW,242,3.0,4.0,71,0.00,,---,0.00,19.00,VWS V14.01,2013-02-05 13:47:00,
2013-02-05 07:51:00,34.0,25.3,29.92,WSW,242,4.0,5.0,70,0.00,,---,0.00,26.00,VWS V14.01,2013-02-05 13:51:00,
2013-02-05 07:57:00,34.0,25.3,29.93,WSW,242,2.0,5.0,70,0.00,,---,0.00,39.00,VWS V14.01,2013-02-05 13:57:00,
2013-02-05 08:00:00,38.0,26.1,29.96,SW,234,3.0,6.0,62,0.00,,---,0.00,234.00,VWS V14.01,2013-02-05 14:00:00,
2013-02-05 08:02:00,34.0,25.3,29.93,WSW,242,4.0,4.0,70,0.00,,---,0.00,46.00,VWS V14.01,2013-02-05 14:02:00,
2013-02-05 08:07:00,34.1,25.4,29.93,WSW,242,5.0,5.0,70,0.00,,---,0.00,53.00,VWS V14.01,2013-02-05 14:07:00,
2013-02-05 08:12:00,34.3,25.2,29.93,SW,234,5.0,6.0,69,0.00,,---,0.00,77.00,VWS V14.01,2013-02-05 14:12:00,
2013-02-05 08:17:00,34.6,25.5,29.94,SW,232,5.0,6.0,69,0.00,,---,0.00,93.00,VWS V14.01,2013-02-05 14:17:00,
2013-02-05 08:22:00,34.9,25.4,29.94,SW,232,2.0,6.0,68,0.00,,---,0.00,109.00,VWS V14.01,2013-02-05 14:22:00,
2013-02-05 08:27:00,35.2,25.7,29.95,SW,234,0.0,6.0,68,0.00,,---,0.00,128.00,VWS V14.01,2013-02-05 14:27:00,
2013-02-05 08:30:00,35.3,25.5,29.95,SW,236,3.0,6.0,67,0.00,,---,0.00,141.00,VWS V14.01,2013-02-05 14:30:00,
2013-02-05 08:32:00,35.5,25.6,29.95,SW,236,2.0,4.0,67,0.00,,---,0.00,151.00,VWS V14.01,2013-02-05 14:32:00,
2013-02-05 08:37:00,35.8,25.6,29.95,SW,236,2.0,4.0,66,0.00,,---,0.00,158.00,VWS V14.01,2013-02-05 14:37:00,
2013-02-05 08:42:00,36.5,25.9,29.95,SW,236,4.0,4.0,65,0.00,,---,0.00,185.00,VWS V14.01,2013-02-05 14:42:00,
2013-02-05 08:47:00,36.9,25.9,29.96,SW,236,0.0,4.0,64,0.00,,---,0.00,195.00,VWS V14.01,2013-02-05 14:47:00,
2013-02-05 08:52:00,37.2,25.8,29.96,West,263,6.0,6.0,63,0.00,,---,0.00,213.00,VWS V14.01,2013-02-05 14:52:00,
2013-02-05 08:57:00,37.6,25.8,29.96,SW,232,1.0,6.0,62,0.00,,---,0.00,225.00,VWS V14.01,2013-02-05 14:57:00,
2013-02-05 09:00:00,38.0,26.1,29.96,SW,234,3.0,6.0,62,0.00,,---,0.00,234.00,VWS V14.01,2013-02-05 15:00:00,
2013-02-05 09:02:00,38.2,26.0,29.96,SW,234,4.0,5.0,61,0.00,,---,0.00,239.00,VWS V14.01,2013-02-05 15:02:00,
2013-02-05 09:07:00,38.6,26.3,29.96,West,259,2.0,5.0,61,0.00,,---,0.00,253.00,VWS V14.01,2013-02-05 15:07:00,
2013-02-05 09:12:00,39.2,26.5,29.96,NNW,337,2.0,5.0,60,0.00,,---,0.00,264.00,VWS V14.01,2013-02-05 15:12:00,
2013-02-05 09:17:00,39.6,26.1,29.97,NW,304,3.0,5.0,58,0.00,,---,0.00,279.00,VWS V14.01,2013-02-05 15:17:00,
2013-02-05 09:22:00,39.8,25.8,29.97,WNW,300,6.0,6.0,57,0.00,,---,0.00,292.00,VWS V14.01,2013-02-05 15:22:00,
2013-02-05 09:27:00,39.8,25.8,29.97,NW,313,4.0,7.0,57,0.00,,---,0.00,306.00,VWS V14.01,2013-02-05 15:27:00,
2013-02-05 09:30:00,39.8,25.8,29.97,NW,321,3.0,7.0,57,0.00,,---,0.00,311.00,VWS V14.01,2013-02-05 15:30:00,
2013-02-05 09:32:00,39.9,26.3,29.98,NW,311,5.0,5.0,58,0.00,,---,0.00,318.00,VWS V14.01,2013-02-05 15:32:00,
2013-02-05 09:37:00,40.1,26.1,29.98,WNW,286,6.0,9.0,57,0.00,,---,0.00,330.00,VWS V14.01,2013-02-05 15:37:00,
2013-02-05 09:42:00,40.3,26.7,29.98,WNW,293,2.0,9.0,58,0.00,,---,0.00,341.00,VWS V14.01,2013-02-05 15:42:00,
2013-02-05 09:47:00,40.5,26.9,29.98,WNW,299,5.0,9.0,58,0.00,,---,0.00,355.00,VWS V14.01,2013-02-05 15:47:00,
2013-02-05 09:52:00,40.6,27.4,29.98,West,279,5.0,9.0,59,0.00,,---,0.00,367.00,VWS V14.01,2013-02-05 15:52:00,
2013-02-05 09:57:00,40.9,27.7,29.98,WNW,300,5.0,9.0,59,0.00,,---,0.00,373.00,VWS V14.01,2013-02-05 15:57:00,
2013-02-05 10:00:00,41.2,28.0,29.99,WNW,291,5.0,9.0,59,0.00,,---,0.00,33.00,VWS V14.01,2013-02-05 16:00:00,
2013-02-05 10:02:00,41.2,27.6,29.99,West,271,2.0,5.0,58,0.00,,---,0.00,33.00,VWS V14.01,2013-02-05 16:02:00,
2013-02-05 10:07:00,41.8,28.1,30.00,NW,314,3.0,5.0,58,0.00,,---,0.00,33.00,VWS V14.01,2013-02-05 16:07:00,
2013-02-05 10:12:00,42.2,28.5,29.99,WNW,288,5.0,8.0,58,0.00,,---,0.00,33.00,VWS V14.01,2013-02-05 16:12:00,
2013-02-05 10:17:00,42.6,28.5,29.99,WNW,292,7.0,8.0,57,0.00,,---,0.00,121.00,VWS V14.01,2013-02-05 16:17:00,
2013-02-05 10:22:00,43.1,28.9,30.00,WNW,301,6.0,9.0,57,0.00,,---,0.00,392.00,VWS V14.01,2013-02-05 16:22:00,
2013-02-05 10:27:00,43.8,29.1,30.00,NW,321,7.0,9.0,56,0.00,,---,0.00,33.00,VWS V14.01,2013-02-05 16:27:00,
2013-02-05 10:30:00,44.1,29.0,30.00,NW,306,4.0,9.0,55,0.00,,---,0.00,33.00,VWS V14.01,2013-02-05 16:30:00,
2013-02-05 10:32:00,44.3,28.7,30.00,WNW,302,2.0,7.0,54,0.00,,---,0.00,53.00,VWS V14.01,2013-02-05 16:32:00,
2013-02-05 10:37:00,44.9,28.8,30.00,WNW,291,6.0,8.0,53,0.00,,---,0.00,56.00,VWS V14.01,2013-02-05 16:37:00,
2013-02-05 10:42:00,45.5,28.0,30.00,WNW,286,4.0,8.0,50,0.00,,---,0.00,420.00,VWS V14.01,2013-02-05 16:42:00,
2013-02-05 10:47:00,45.8,28.2,30.00,NW,323,6.0,8.0,50,0.00,,---,0.00,485.00,VWS V14.01,2013-02-05 16:47:00,
2013-02-05 10:52:00,46.1,27.5,30.01,NW,309,9.0,11.0,48,0.00,,---,0.00,487.00,VWS V14.01,2013-02-05 16:52:00,
2013-02-05 10:57:00,46.1,28.0,30.01,North,355,9.0,11.0,49,0.00,,---,0.00,127.00,VWS V14.01,2013-02-05 16:57:00,
2013-02-05 11:00:00,46.4,27.8,30.01,NNW,338,10.0,11.0,48,0.00,,---,0.00,508.00,VWS V14.01,2013-02-05 17:00:00,
2013-02-05 11:02:00,46.2,27.6,30.01,NNW,330,9.0,12.0,48,0.00,,---,0.00,512.00,VWS V14.01,2013-02-05 17:02:00,
2013-02-05 11:07:00,46.4,27.8,30.01,North,360,7.0,12.0,48,0.00,,---,0.00,519.00,VWS V14.01,2013-02-05 17:07:00,
2013-02-05 11:12:00,46.5,28.4,30.01,NW,321,5.0,12.0,49,0.00,,---,0.00,529.00,VWS V14.01,2013-02-05 17:12:00,
2013-02-05 11:17:00,47.4,28.2,30.01,North,350,7.0,12.0,47,0.00,,---,0.00,536.00,VWS V14.01,2013-02-05 17:17:00,
2013-02-05 11:30:00,53.6,29.9,30.00,NNW,332,0.0,8.0,40,0.00,,---,0.00,598.00,VWS V14.01,2013-02-05 17:30:00,
2013-02-05 12:00:00,55.6,29.1,29.99,NW,312,1.0,10.0,36,0.00,,---,0.00,388.00,VWS V14.01,2013-02-05 18:00:00,
2013-02-05 12:22:00,52.8,29.8,30.01,North,5,3.0,3.0,41,0.00,,---,0.00,596.00,VWS V14.01,2013-02-05 18:22:00,
2013-02-05 12:27:00,53.1,30.0,30.01,NW,311,1.0,8.0,41,0.00,,---,0.00,598.00,VWS V14.01,2013-02-05 18:27:00,
2013-02-05 12:30:00,57.6,27.2,29.98,NW,315,4.0,10.0,31,0.00,,---,0.00,32.00,VWS V14.01,2013-02-05 18:30:00,
2013-02-05 12:32:00,54.1,29.1,30.00,WNW,286,4.0,6.0,38,0.00,,---,0.00,599.00,VWS V14.01,2013-02-05 18:32:00,
2013-02-05 12:37:00,54.4,29.3,30.00,North,350,5.0,8.0,38,0.00,,---,0.00,601.00,VWS V14.01,2013-02-05 18:37:00,
2013-02-05 12:42:00,54.7,28.3,30.00,NNW,340,5.0,10.0,36,0.00,,---,0.00,601.00,VWS V14.01,2013-02-05 18:42:00,
2013-02-05 12:47:00,55.1,28.0,30.00,NNW,346,1.0,10.0,35,0.00,,---,0.00,599.00,VWS V14.01,2013-02-05 18:47:00,
2013-02-05 12:52:00,55.7,28.5,29.99,WNW,302,1.0,10.0,35,0.00,,---,0.00,601.00,VWS V14.01,2013-02-05 18:52:00,
2013-02-05 12:57:00,55.6,28.4,29.99,NW,306,4.0,10.0,35,0.00,,---,0.00,547.00,VWS V14.01,2013-02-05 18:57:00,
2013-02-05 13:00:00,58.1,25.2,29.98,NNE,12,6.0,13.0,28,0.00,,---,0.00,32.00,VWS V14.01,2013-02-05 19:00:00,
2013-02-05 13:02:00,55.9,29.4,29.99,NW,313,4.0,4.0,36,0.00,,---,0.00,285.00,VWS V14.01,2013-02-05 19:02:00,
2013-02-05 13:07:00,56.5,27.8,29.99,NNW,342,4.0,7.0,33,0.00,,---,0.00,81.00,VWS V14.01,2013-02-05 19:07:00,
2013-02-05 13:12:00,56.7,27.2,29.99,NNW,332,3.0,8.0,32,0.00,,---,0.00,33.00,VWS V14.01,2013-02-05 19:12:00,
2013-02-05 13:17:00,56.6,27.1,29.99,NNW,336,4.0,10.0,32,0.00,,---,0.00,32.00,VWS V14.01,2013-02-05 19:17:00,
2013-02-05 13:22:00,56.7,27.2,29.99,WNW,296,5.0,10.0,32,0.00,,---,0.00,32.00,VWS V14.01,2013-02-05 19:22:00,
2013-02-05 13:27:00,57.2,26.9,29.99,West,272,1.0,10.0,31,0.00,,---,0.00,32.00,VWS V14.01,2013-02-05 19:27:00,
2013-02-05 13:30:00,59.5,26.4,29.97,NNE,19,9.0,9.0,28,0.00,,---,0.00,32.00,VWS V14.01,2013-02-05 19:30:00,
2013-02-05 13:32:00,57.8,27.4,29.98,ENE,72,4.0,6.0,31,0.00,,---,0.00,32.00,VWS V14.01,2013-02-05 19:32:00,
2013-02-05 13:37:00,57.8,25.8,29.98,East,85,1.0,6.0,29,0.00,,---,0.00,32.00,VWS V14.01,2013-02-05 19:37:00,
2013-02-05 13:42:00,58.1,26.9,29.98,NE,38,3.0,6.0,30,0.00,,---,0.00,32.00,VWS V14.01,2013-02-05 19:42:00,
2013-02-05 13:47:00,58.4,25.5,29.98,NW,320,4.0,6.0,28,0.00,,---,0.00,32.00,VWS V14.01,2013-02-05 19:47:00,
2013-02-05 13:52:00,58.6,25.6,29.98,North,355,6.0,6.0,28,0.00,,---,0.00,32.00,VWS V14.01,2013-02-05 19:52:00,
2013-02-05 13:57:00,58.7,24.8,29.97,North,5,7.0,9.0,27,0.00,,---,0.00,32.00,VWS V14.01,2013-02-05 19:57:00,
2013-02-05 14:00:00,59.0,26.8,29.96,NNE,17,5.0,10.0,29,0.00,,---,0.00,32.00,VWS V14.01,2013-02-05 20:00:00,
2013-02-05 14:02:00,58.0,25.1,29.97,NNW,348,4.0,6.0,28,0.00,,---,0.00,32.00,VWS V14.01,2013-02-05 20:02:00,
2013-02-05 14:07:00,58.1,25.2,29.97,North,11,7.0,7.0,28,0.00,,---,0.00,32.00,VWS V14.01,2013-02-05 20:07:00,
2013-02-05 14:12:00,58.3,25.4,29.97,North,9,6.0,9.0,28,0.00,,---,0.00,32.00,VWS V14.01,2013-02-05 20:12:00,
2013-02-05 14:17:00,58.6,25.6,29.97,WNW,292,5.0,9.0,28,0.00,,---,0.00,32.00,VWS V14.01,2013-02-05 20:17:00,
2013-02-05 14:22:00,58.7,25.7,29.97,NNW,339,1.0,9.0,28,0.00,,---,0.00,32.00,VWS V14.01,2013-02-05 20:22:00,
2013-02-05 14:27:00,59.3,25.4,29.97,NE,50,6.0,9.0,27,0.00,,---,0.00,32.00,VWS V14.01,2013-02-05 20:27:00,
2013-02-05 14:30:00,59.2,25.3,29.97,North,355,9.0,11.0,27,0.00,,---,0.00,32.00,VWS V14.01,2013-02-05 20:30:00,
2013-02-05 14:32:00,59.2,26.1,29.97,NNE,22,6.0,9.0,28,0.00,,---,0.00,32.00,VWS V14.01,2013-02-05 20:32:00,
2013-02-05 14:37:00,58.9,25.9,29.97,North,5,3.0,9.0,28,0.00,,---,0.00,32.00,VWS V14.01,2013-02-05 20:37:00,
2013-02-05 14:42:00,59.3,25.4,29.97,NNW,332,6.0,9.0,27,0.00,,---,0.00,32.00,VWS V14.01,2013-02-05 20:42:00,
2013-02-05 14:47:00,59.2,25.3,29.97,NNW,347,6.0,9.0,27,0.00,,---,0.00,33.00,VWS V14.01,2013-02-05 20:47:00,
2013-02-05 14:52:00,59.3,26.2,29.97,WNW,289,6.0,9.0,28,0.00,,---,0.00,33.00,VWS V14.01,2013-02-05 20:52:00,
2013-02-05 14:57:00,59.0,26.0,29.97,NE,43,3.0,10.0,28,0.00,,---,0.00,32.00,VWS V14.01,2013-02-05 20:57:00,
2013-02-05 15:00:00,58.9,26.7,29.97,NNE,32,2.0,13.0,29,0.00,,---,0.00,84.00,VWS V14.01,2013-02-05 21:00:00,
2013-02-05 15:02:00,59.0,26.8,29.96,North,355,7.0,9.0,29,0.00,,---,0.00,32.00,VWS V14.01,2013-02-05 21:02:00,
2013-02-05 15:07:00,59.0,26.8,29.96,ENE,67,4.0,9.0,29,0.00,,---,0.00,32.00,VWS V14.01,2013-02-05 21:07:00,
2013-02-05 15:12:00,59.0,26.0,29.96,NNW,347,2.0,9.0,28,0.00,,---,0.00,32.00,VWS V14.01,2013-02-05 21:12:00,
2013-02-05 15:17:00,58.9,25.9,29.97,NNE,28,6.0,11.0,28,0.00,,---,0.00,32.00,VWS V14.01,2013-02-05 21:17:00,
2013-02-05 15:22:00,59.0,24.2,29.96,North,350,4.0,11.0,26,0.00,,---,0.00,32.00,VWS V14.01,2013-02-05 21:22:00,
2013-02-05 15:27:00,59.2,25.3,29.97,North,355,5.0,11.0,27,0.00,,---,0.00,32.00,VWS V14.01,2013-02-05 21:27:00,
2013-02-05 15:30:00,58.9,25.9,29.96,North,5,4.0,10.0,28,0.00,,---,0.00,244.00,VWS V14.01,2013-02-05 21:30:00,
2013-02-05 15:32:00,59.2,25.3,29.97,NNW,342,8.0,11.0,27,0.00,,---,0.00,32.00,VWS V14.01,2013-02-05 21:32:00,
2013-02-05 15:37:00,59.2,25.3,29.97,North,360,8.0,13.0,27,0.00,,---,0.00,30.00,VWS V14.01,2013-02-05 21:37:00,
2013-02-05 15:42:00,59.0,26.0,29.96,NW,322,3.0,13.0,28,0.00,,---,0.00,30.00,VWS V14.01,2013-02-05 21:42:00,
2013-02-05 15:47:00,59.0,26.0,29.97,North,355,8.0,13.0,28,0.00,,---,0.00,32.00,VWS V14.01,2013-02-05 21:47:00,
2013-02-05 15:53:00,58.9,26.7,29.97,NNE,33,7.0,13.0,29,0.00,,---,0.00,32.00,VWS V14.01,2013-02-05 21:53:00,
2013-02-05 15:58:00,58.7,26.5,29.97,NE,40,4.0,13.0,29,0.00,,---,0.00,54.00,VWS V14.01,2013-02-05 21:58:00,
2013-02-05 16:00:00,58.6,26.5,29.96,NE,40,6.0,10.0,29,0.00,,---,0.00,165.00,VWS V14.01,2013-02-05 22:00:00,
2013-02-05 16:03:00,59.2,27.0,29.97,North,11,5.0,5.0,29,0.00,,---,0.00,125.00,VWS V14.01,2013-02-05 22:03:00,
2013-02-05 16:08:00,59.2,27.0,29.97,North,360,5.0,7.0,29,0.00,,---,0.00,213.00,VWS V14.01,2013-02-05 22:08:00,
2013-02-05 16:13:00,58.9,27.5,29.96,NNE,25,5.0,7.0,30,0.00,,---,0.00,262.00,VWS V14.01,2013-02-05 22:13:00,
2013-02-05 16:18:00,58.9,27.5,29.96,North,360,6.0,7.0,30,0.00,,---,0.00,276.00,VWS V14.01,2013-02-05 22:18:00,
2013-02-05 16:23:00,59.0,26.8,29.97,North,10,7.0,10.0,29,0.00,,---,0.00,267.00,VWS V14.01,2013-02-05 22:23:00,
2013-02-05 16:28:00,58.9,25.9,29.96,NE,41,4.0,10.0,28,0.00,,---,0.00,250.00,VWS V14.01,2013-02-05 22:28:00,
2013-02-05 16:30:00,57.6,26.4,29.97,NE,51,7.0,11.0,30,0.00,,---,0.00,74.00,VWS V14.01,2013-02-05 22:30:00,
2013-02-05 16:33:00,58.9,25.9,29.96,NNE,26,4.0,10.0,28,0.00,,---,0.00,237.00,VWS V14.01,2013-02-05 22:33:00,
2013-02-05 16:38:00,58.9,25.9,29.96,East,80,4.0,10.0,28,0.00,,---,0.00,223.00,VWS V14.01,2013-02-05 22:38:00,
2013-02-05 16:43:00,58.7,25.7,29.96,North,360,7.0,10.0,28,0.00,,---,0.00,213.00,VWS V14.01,2013-02-05 22:43:00,
2013-02-05 16:48:00,58.7,26.5,29.96,NNE,32,4.0,10.0,29,0.00,,---,0.00,197.00,VWS V14.01,2013-02-05 22:48:00,
2013-02-05 16:53:00,58.7,25.7,29.96,NE,43,6.0,10.0,28,0.00,,---,0.00,185.00,VWS V14.01,2013-02-05 22:53:00,
2013-02-05 16:58:00,58.6,26.5,29.96,NNE,32,6.0,10.0,29,0.00,,---,0.00,179.00,VWS V14.01,2013-02-05 22:58:00,
2013-02-05 17:00:00,56.3,27.6,29.97,NE,50,4.0,9.0,33,0.00,,---,0.00,9.00,VWS V14.01,2013-02-05 23:00:00,
2013-02-05 17:03:00,58.4,27.1,29.96,ENE,64,4.0,8.0,30,0.00,,---,0.00,158.00,VWS V14.01,2013-02-05 23:03:00,
2013-02-05 17:08:00,58.3,26.2,29.96,NE,38,7.0,11.0,29,0.00,,---,0.00,144.00,VWS V14.01,2013-02-05 23:08:00,
2013-02-05 17:13:00,58.1,26.9,29.96,ENE,58,5.0,11.0,30,0.00,,---,0.00,130.00,VWS V14.01,2013-02-05 23:13:00,
2013-02-05 17:18:00,58.0,26.8,29.97,NE,50,5.0,11.0,30,0.00,,---,0.00,113.00,VWS V14.01,2013-02-05 23:18:00,
2013-02-05 17:23:00,57.8,26.6,29.97,ENE,60,4.0,11.0,30,0.00,,---,0.00,97.00,VWS V14.01,2013-02-05 23:23:00,
2013-02-05 17:28:00,57.6,26.4,29.97,ENE,57,7.0,11.0,30,0.00,,---,0.00,79.00,VWS V14.01,2013-02-05 23:28:00,
2013-02-05 17:30:00,54.4,28.7,29.97,NE,41,4.0,7.0,37,0.00,,---,0.00,0.00,VWS V14.01,2013-02-05 23:30:00,
2013-02-05 17:33:00,57.6,26.4,29.97,ENE,66,3.0,8.0,30,0.00,,---,0.00,63.00,VWS V14.01,2013-02-05 23:33:00,
2013-02-05 17:38:00,57.5,26.3,29.97,NE,37,6.0,8.0,30,0.00,,---,0.00,51.00,VWS V14.01,2013-02-05 23:38:00,
2013-02-05 17:43:00,57.2,26.9,29.97,NE,51,6.0,9.0,31,0.00,,---,0.00,37.00,VWS V14.01,2013-02-05 23:43:00,
2013-02-05 17:48:00,57.0,26.7,29.97,NE,51,4.0,9.0,31,0.00,,---,0.00,25.00,VWS V14.01,2013-02-05 23:48:00,
2013-02-05 17:53:00,56.7,27.2,29.97,NE,50,4.0,9.0,32,0.00,,---,0.00,16.00,VWS V14.01,2013-02-05 23:53:00,
2013-02-05 17:58:00,56.5,27.8,29.97,NE,50,4.0,9.0,33,0.00,,---,0.00,9.00,VWS V14.01,2013-02-05 23:58:00,
2013-02-05 18:00:00,52.8,29.2,29.99,NE,41,2.0,6.0,40,0.00,,---,0.00,0.00,VWS V14.01,2013-02-06 00:00:00,
2013-02-05 18:03:00,56.0,28.0,29.97,NE,49,6.0,6.0,34,0.00,,---,0.00,7.00,VWS V14.01,2013-02-06 00:03:00,
2013-02-05 18:08:00,55.7,27.8,29.97,NE,50,3.0,6.0,34,0.00,,---,0.00,0.00,VWS V14.01,2013-02-06 00:08:00,
2013-02-05 18:13:00,55.4,28.2,29.97,NE,50,5.0,6.0,35,0.00,,---,0.00,0.00,VWS V14.01,2013-02-06 00:13:00,
2013-02-05 18:18:00,55.3,28.1,29.97,NE,40,6.0,6.0,35,0.00,,---,0.00,0.00,VWS V14.01,2013-02-06 00:18:00,
2013-02-05 18:23:00,55.0,28.6,29.97,NE,38,6.0,7.0,36,0.00,,---,0.00,0.00,VWS V14.01,2013-02-06 00:23:00,
2013-02-05 18:28:00,54.5,28.8,29.97,NE,41,4.0,7.0,37,0.00,,---,0.00,0.00,VWS V14.01,2013-02-06 00:28:00,
2013-02-05 18:30:00,51.4,29.7,29.99,NE,46,5.0,9.0,43,0.00,,---,0.00,0.00,VWS V14.01,2013-02-06 00:30:00,
2013-02-05 18:33:00,54.2,28.5,29.97,NE,41,4.0,6.0,37,0.00,,---,0.00,0.00,VWS V14.01,2013-02-06 00:33:00,
2013-02-05 18:38:00,53.9,28.9,29.98,NE,36,3.0,6.0,38,0.00,,---,0.00,0.00,VWS V14.01,2013-02-06 00:38:00,
2013-02-05 18:43:00,53.6,28.6,29.98,NE,40,5.0,6.0,38,0.00,,---,0.00,0.00,VWS V14.01,2013-02-06 00:43:00,
2013-02-05 18:48:00,53.3,29.0,29.98,NE,41,2.0,6.0,39,0.00,,---,0.00,0.00,VWS V14.01,2013-02-06 00:48:00,
2013-02-05 18:53:00,53.1,28.8,29.99,NE,41,2.0,6.0,39,0.00,,---,0.00,0.00,VWS V14.01,2013-02-06 00:53:00,
2013-02-05 18:58:00,52.9,29.2,29.99,NE,41,2.0,6.0,40,0.00,,---,0.00,0.00,VWS V14.01,2013-02-06 00:58:00,
2013-02-05 19:00:00,49.5,29.6,30.00,NE,56,5.0,6.0,46,0.00,,---,0.00,0.00,VWS V14.01,2013-02-06 01:00:00,
2013-02-05 19:03:00,52.8,29.2,29.99,NE,41,2.0,3.0,40,0.00,,---,0.00,0.00,VWS V14.01,2013-02-06 01:03:00,
2013-02-05 19:08:00,52.5,29.5,29.99,NE,41,3.0,3.0,41,0.00,,---,0.00,0.00,VWS V14.01,2013-02-06 01:08:00,
2013-02-05 19:13:00,52.3,29.3,29.99,NE,41,3.0,4.0,41,0.00,,---,0.00,0.00,VWS V14.01,2013-02-06 01:13:00,
2013-02-05 19:18:00,52.2,29.8,29.99,NE,41,6.0,6.0,42,0.00,,---,0.00,0.00,VWS V14.01,2013-02-06 01:18:00,
2013-02-05 19:24:00,51.9,29.5,29.99,NNE,28,7.0,9.0,42,0.00,,---,0.00,0.00,VWS V14.01,2013-02-06 01:24:00,
2013-02-05 19:28:00,51.6,29.9,29.99,NE,46,4.0,9.0,43,0.00,,---,0.00,0.00,VWS V14.01,2013-02-06 01:28:00,
2013-02-05 19:30:00,47.4,29.2,30.00,ENE,77,6.0,10.0,49,0.00,,---,0.00,0.00,VWS V14.01,2013-02-06 01:30:00,
2013-02-05 19:33:00,51.1,29.4,29.99,NE,52,3.0,6.0,43,0.00,,---,0.00,0.00,VWS V14.01,2013-02-06 01:33:00,
2013-02-05 19:39:00,50.7,29.6,30.00,NE,52,4.0,6.0,44,0.00,,---,0.00,0.00,VWS V14.01,2013-02-06 01:39:00,
2013-02-05 19:44:00,50.4,29.9,30.00,NE,52,5.0,6.0,45,0.00,,---,0.00,0.00,VWS V14.01,2013-02-06 01:44:00,
2013-02-05 19:49:00,50.1,29.6,30.00,NE,52,3.0,6.0,45,0.00,,---,0.00,0.00,VWS V14.01,2013-02-06 01:49:00,
2013-02-05 19:54:00,49.8,29.9,30.00,NE,52,3.0,6.0,46,0.00,,---,0.00,0.00,VWS V14.01,2013-02-06 01:54:00,
2013-02-05 19:59:00,49.6,29.7,30.00,NE,56,5.0,6.0,46,0.00,,---,0.00,0.00,VWS V14.01,2013-02-06 01:59:00,
2013-02-05 20:00:00,45.5,28.9,30.00,East,98,6.0,10.0,52,0.00,,---,0.00,0.00,VWS V14.01,2013-02-06 02:00:00,
2013-02-05 20:04:00,49.4,29.5,30.00,ENE,66,4.0,6.0,46,0.00,,---,0.00,0.00,VWS V14.01,2013-02-06 02:04:00,
2013-02-05 20:09:00,49.1,29.8,30.00,ENE,61,4.0,7.0,47,0.00,,---,0.00,0.00,VWS V14.01,2013-02-06 02:09:00,
2013-02-05 20:14:00,48.6,29.8,30.00,ENE,67,5.0,8.0,48,0.00,,---,0.00,0.00,VWS V14.01,2013-02-06 02:14:00,
2013-02-05 20:19:00,48.2,29.5,30.01,ENE,75,4.0,8.0,48,0.00,,---,0.00,0.00,VWS V14.01,2013-02-06 02:19:00,
2013-02-05 20:24:00,47.7,29.5,30.00,ENE,61,8.0,10.0,49,0.00,,---,0.00,0.00,VWS V14.01,2013-02-06 02:24:00,
2013-02-05 20:29:00,47.6,29.4,30.00,East,88,5.0,10.0,49,0.00,,---,0.00,0.00,VWS V14.01,2013-02-06 02:29:00,
2013-02-05 20:30:00,44.9,28.4,30.00,East,96,7.0,11.0,52,0.00,,---,0.00,0.00,VWS V14.01,2013-02-06 02:30:00,
2013-02-05 20:34:00,47.1,29.4,30.00,ENE,69,4.0,8.0,50,0.00,,---,0.00,0.00,VWS V14.01,2013-02-06 02:34:00,
2013-02-05 20:39:00,46.7,29.1,30.00,ENE,67,5.0,8.0,50,0.00,,---,0.00,0.00,VWS V14.01,2013-02-06 02:39:00,
2013-02-05 20:44:00,46.4,29.3,30.00,East,84,7.0,8.0,51,0.00,,---,0.00,0.00,VWS V14.01,2013-02-06 02:44:00,
2013-02-05 20:49:00,46.1,29.0,30.00,ENE,74,6.0,10.0,51,0.00,,---,0.00,0.00,VWS V14.01,2013-02-06 02:49:00,
2013-02-05 20:54:00,45.8,29.2,30.00,ENE,65,5.0,10.0,52,0.00,,---,0.00,0.00,VWS V14.01,2013-02-06 02:54:00,
2013-02-05 20:59:00,45.5,28.9,30.00,East,87,7.0,10.0,52,0.00,,---,0.00,0.00,VWS V14.01,2013-02-06 02:59:00,
2013-02-05 21:00:00,44.2,27.7,30.01,ESE,103,6.0,11.0,52,0.00,,---,0.00,0.00,VWS V14.01,2013-02-06 03:00:00,
2013-02-05 21:04:00,45.4,28.8,30.00,East,98,7.0,8.0,52,0.00,,---,0.00,0.00,VWS V14.01,2013-02-06 03:04:00,
2013-02-05 21:09:00,45.2,28.6,30.00,East,83,6.0,8.0,52,0.00,,---,0.00,0.00,VWS V14.01,2013-02-06 03:09:00,
2013-02-05 21:14:00,45.1,28.5,30.00,ESE,102,5.0,8.0,52,0.00,,---,0.00,0.00,VWS V14.01,2013-02-06 03:14:00,
2013-02-05 21:19:00,45.1,28.5,30.00,ESE,102,8.0,11.0,52,0.00,,---,0.00,0.00,VWS V14.01,2013-02-06 03:19:00,
2013-02-05 21:24:00,45.1,28.5,30.00,East,94,8.0,11.0,52,0.00,,---,0.00,0.00,VWS V14.01,2013-02-06 03:24:00,
2013-02-05 21:29:00,44.9,28.4,30.00,East,84,7.0,11.0,52,0.00,,---,0.00,0.00,VWS V14.01,2013-02-06 03:29:00,
2013-02-05 21:30:00,43.6,27.1,30.00,East,93,6.0,13.0,52,0.00,,---,0.00,0.00,VWS V14.01,2013-02-06 03:30:00,
2013-02-05 21:34:00,44.9,28.4,30.01,East,91,7.0,8.0,52,0.00,,---,0.00,0.00,VWS V14.01,2013-02-06 03:34:00,
2013-02-05 21:39:00,44.8,28.3,30.01,East,88,6.0,8.0,52,0.00,,---,0.00,0.00,VWS V14.01,2013-02-06 03:39:00,
2013-02-05 21:44:00,44.6,28.1,30.01,East,98,7.0,11.0,52,0.00,,---,0.00,0.00,VWS V14.01,2013-02-06 03:44:00,
2013-02-05 21:49:00,44.5,28.0,30.01,East,99,4.0,11.0,52,0.00,,---,0.00,0.00,VWS V14.01,2013-02-06 03:49:00,
2013-02-05 21:54:00,44.2,27.7,30.01,ESE,110,7.0,11.0,52,0.00,,---,0.00,0.00,VWS V14.01,2013-02-06 03:54:00,
2013-02-05 21:59:00,44.2,27.7,30.01,East,99,4.0,11.0,52,0.00,,---,0.00,0.00,VWS V14.01,2013-02-06 03:59:00,
2013-02-05 22:00:00,43.2,27.2,30.01,East,94,5.0,10.0,53,0.00,,---,0.00,0.00,VWS V14.01,2013-02-06 04:00:00,
2013-02-05 22:04:00,44.1,27.6,30.01,ESE,118,8.0,11.0,52,0.00,,---,0.00,0.00,VWS V14.01,2013-02-06 04:04:00,
2013-02-05 22:09:00,43.9,27.9,30.01,East,96,7.0,11.0,53,0.00,,---,0.00,0.00,VWS V14.01,2013-02-06 04:09:00,
2013-02-05 22:14:00,43.9,27.4,30.00,East,82,7.0,13.0,52,0.00,,---,0.00,0.00,VWS V14.01,2013-02-06 04:14:00,
2013-02-05 22:19:00,43.8,27.3,30.01,East,96,8.0,13.0,52,0.00,,---,0.00,0.00,VWS V14.01,2013-02-06 04:19:00,
2013-02-05 22:24:00,43.6,27.1,30.00,East,90,8.0,13.0,52,0.00,,---,0.00,0.00,VWS V14.01,2013-02-06 04:24:00,
2013-02-05 22:29:00,43.6,27.1,30.00,East,79,6.0,13.0,52,0.00,,---,0.00,0.00,VWS V14.01,2013-02-06 04:29:00,
2013-02-05 22:30:00,42.2,27.2,30.01,East,90,5.0,11.0,55,0.00,,---,0.00,0.00,VWS V14.01,2013-02-06 04:30:00,
2013-02-05 22:34:00,43.6,27.6,30.00,East,95,7.0,10.0,53,0.00,,---,0.00,0.00,VWS V14.01,2013-02-06 04:34:00,
2013-02-05 22:39:00,43.3,27.3,30.01,ESE,103,6.0,10.0,53,0.00,,---,0.00,0.00,VWS V14.01,2013-02-06 04:39:00,
2013-02-05 22:44:00,43.3,27.3,30.01,East,80,5.0,10.0,53,0.00,,---,0.00,0.00,VWS V14.01,2013-02-06 04:44:00,
2013-02-05 22:49:00,43.3,27.3,30.01,SE,139,5.0,10.0,53,0.00,,---,0.00,0.00,VWS V14.01,2013-02-06 04:49:00,
2013-02-05 22:54:00,43.3,27.3,30.01,East,96,9.0,10.0,53,0.00,,---,0.00,0.00,VWS V14.01,2013-02-06 04:54:00,
2013-02-05 22:59:00,43.2,27.2,30.01,East,96,8.0,10.0,53,0.00,,---,0.00,0.00,VWS V14.01,2013-02-06 04:59:00,
2013-02-05 23:00:00,43.2,27.2,30.01,East,96,7.0,10.0,53,0.00,,---,0.00,0.00,VWS V14.01,2013-02-06 05:00:00,
2013-02-05 23:05:00,43.1,27.6,30.00,East,97,7.0,11.0,54,0.00,,---,0.00,0.00,VWS V14.01,2013-02-06 05:05:00,
2013-02-05 23:10:00,42.9,27.4,30.01,East,90,5.0,11.0,54,0.00,,---,0.00,0.00,VWS V14.01,2013-02-06 05:10:00,
2013-02-05 23:15:00,42.6,27.6,30.01,East,94,5.0,11.0,55,0.00,,---,0.00,0.00,VWS V14.01,2013-02-06 05:15:00,
2013-02-05 23:20:00,42.5,27.5,30.01,East,93,6.0,11.0,55,0.00,,---,0.00,0.00,VWS V14.01,2013-02-06 05:20:00,
2013-02-05 23:25:00,42.3,27.3,30.01,East,101,5.0,11.0,55,0.00,,---,0.00,0.00,VWS V14.01,2013-02-06 05:25:00,
2013-02-05 23:30:00,42.2,27.2,30.01,ESE,102,6.0,7.0,55,0.00,,---,0.00,0.00,VWS V14.01,2013-02-06 05:30:00,
2013-02-05 23:35:00,41.9,26.9,30.01,ESE,123,5.0,8.0,55,0.00,,---,0.00,0.00,VWS V14.01,2013-02-06 05:35:00,
2013-02-05 23:40:00,41.6,27.1,30.01,East,90,5.0,8.0,56,0.00,,---,0.00,0.00,VWS V14.01,2013-02-06 05:40:00,
2013-02-05 23:45:00,41.5,27.0,30.01,East,90,5.0,8.0,56,0.00,,---,0.00,0.00,VWS V14.01,2013-02-06 05:45:00,
2013-02-05 23:50:00,41.3,27.2,30.01,East,100,5.0,8.0,57,0.00,,---,0.00,0.00,VWS V14.01,2013-02-06 05:50:00,
2013-02-05 23:55:00,41.1,27.0,30.01,East,100,4.0,8.0,57,0.00,,---,0.00,0.00,VWS V14.01,2013-02-06 05:55:00,